CST,Max TemperatureF,Mean TemperatureF,Min TemperatureF,Max Dew PointF,MeanDew PointF,Min DewpointF,Max Humidity, Mean Humidity, Min Humidity, Max Sea Level PressureIn, Mean Sea Level PressureIn, Min Sea Level PressureIn, Max VisibilityMiles, Mean VisibilityMiles, Min VisibilityMiles, Max Wind SpeedMPH, Mean Wind SpeedMPH, Max Gust SpeedMPH,PrecipitationIn, CloudCover, Events, WindDirDegrees
2012-12-1,73,60,46,53,48,43,93,72,41,30.31,30.26,30.23,10,10,7,10,2,,0.00,2,,144
2012-12-2,75,60,45,57,48,41,93,75,44,30.34,30.27,30.23,10,10,10,6,1,,0.01,0,Hail,169
2012-12-3,75,60,44,58,48,41,93,78,43,30.29,30.25,30.19,10,8,0,10,2,17,0.00,3,Fog,151
2012-12-4,73,60,48,61,54,45,100,85,53,30.30,30.23,30.19,10,8,0,8,1,,0.00,5,Fog-Rain,165
2012-12-5,73,62,51,59,54,48,100,84,46,30.21,30.15,30.07,10,6,0,5,1,,0.01,4,Fog,65
2012-12-6,75,60,46,55,51,44,93,72,42,30.08,30.03,29.98,10,10,10,8,3,,0.00,1,,97
2012-12-7,64,60,57,58,57,55,94,86,77,30.04,29.99,29.95,10,10,8,10,6,,0.00,8,,117
2012-12-8,72,64,57,63,59,55,100,87,66,30.02,29.98,29.94,10,7,0,9,3,,0.00,6,Fog,143
2012-12-9,73,66,59,63,60,57,100,87,59,30.09,30.02,29.93,10,6,0,12,3,,0.01,6,Fog,169
2012-12-10,75,62,48,65,60,44,100,89,67,29.93,29.82,29.74,10,9,1,18,8,29,0.41,8,Rain-Thunderstorm,228
2012-12-11,46,42,39,45,37,32,93,77,65,30.17,30.04,29.92,10,10,9,13,9,18,0.00,5,Hail,345
2012-12-12,53,44,35,37,33,32,89,71,45,30.24,30.18,30.13,10,10,9,8,5,,0.00,1,,357
2012-12-13,61,48,36,41,37,33,89,76,46,30.34,30.28,30.24,10,10,10,12,6,,0.00,0,,12
2012-12-14,63,48,32,46,41,30,100,82,50,30.34,30.26,30.14,10,8,2,9,3,,0.01,2,,96
2012-12-15,66,56,46,55,51,44,93,78,63,30.19,30.09,30.02,10,10,8,9,4,,0.00,5,,157
2012-12-16,71,64,57,64,59,55,100,90,73,30.00,29.93,29.83,10,7,0,13,5,20,0.97,8,Fog-Rain,139
2012-12-17,63,59,55,61,57,55,100,94,88,29.88,29.81,29.74,10,8,2,10,5,,0.83,7,Rain,192
2012-12-18,64,54,43,57,43,31,97,71,29,30.03,29.96,29.83,10,10,6,7,4,,0.01,1,,294
2012-12-19,71,54,37,51,44,34,90,70,36,30.09,30.03,29.96,10,10,10,10,3,16,0.00,0,,159
2012-12-20,71,58,42,67,50,25,97,74,30,30.11,29.89,29.77,10,8,1,25,10,40,0.55,5,Rain,225
2012-12-21,50,44,37,23,14,7,48,34,18,30.30,30.22,30.11,10,10,10,17,12,28,0.00,0,,303
2012-12-22,57,44,32,28,19,11,82,44,19,30.38,30.30,30.24,10,10,10,9,6,,0.00,0,,319
2012-12-23,55,42,30,43,34,27,89,70,40,30.25,30.16,30.03,10,10,10,7,2,,0.00,2,,166
2012-12-24,72,60,46,63,54,44,100,87,51,30.00,29.91,29.85,10,8,1,12,6,18,0.66,5,Rain-Thunderstorm,203
2012-12-25,66,56,46,64,58,45,100,94,87,29.92,29.75,29.55,10,5,0,18,6,32,1.93,8,Fog-Rain-Thunderstorm,135
2012-12-26,55,45,35,53,33,28,90,71,61,30.12,29.89,29.58,10,10,10,23,13,32,0.00,7,,282
2012-12-27,46,39,32,33,30,28,92,75,52,30.18,30.12,30.08,10,10,8,10,7,18,0.00,4,,351
2012-12-28,53,42,30,48,41,28,100,84,56,30.08,29.89,29.76,10,7,2,9,4,16,0.35,6,Rain,98
2012-12-29,51,43,33,49,34,24,100,75,57,30.36,30.08,29.79,10,9,3,18,9,28,0.00,8,,306
2012-12-30,50,39,28,29,25,22,88,66,35,30.49,30.41,30.36,10,10,10,10,6,,0.00,0,,359
2012-12-31,60,45,30,48,39,27,92,72,57,30.38,30.26,30.12,10,10,10,7,2,,0.00,5,,143